sensor_id;sensor_type;location;lat;lon;timestamp;temperature;humidity
33827;DHT22;20128;45.582;5.298;2022-08-23T00:00:30;25.70;54.90
33827;DHT22;20128;45.582;5.298;2022-08-23T00:02:56;25.70;54.40
33827;DHT22;20128;45.582;5.298;2022-08-23T00:05:22;25.70;54.80
33827;DHT22;20128;45.582;5.298;2022-08-23T00:07:47;25.70;54.70
33827;DHT22;20128;45.582;5.298;2022-08-23T00:10:15;25.70;54.70
33827;DHT22;20128;45.582;5.298;2022-08-23T00:12:41;25.60;54.80
33827;DHT22;20128;45.582;5.298;2022-08-23T00:15:10;25.60;55.00
33827;DHT22;20128;45.582;5.298;2022-08-23T00:17:36;25.60;54.80
33827;DHT22;20128;45.582;5.298;2022-08-23T00:20:08;25.60;55.00
33827;DHT22;20128;45.582;5.298;2022-08-23T00:22:34;25.60;55.10
33827;DHT22;20128;45.582;5.298;2022-08-23T00:25:00;25.50;55.30
33827;DHT22;20128;45.582;5.298;2022-08-23T00:27:26;25.50;55.60
33827;DHT22;20128;45.582;5.298;2022-08-23T00:29:54;25.50;55.60
33827;DHT22;20128;45.582;5.298;2022-08-23T00:32:26;25.40;55.70
33827;DHT22;20128;45.582;5.298;2022-08-23T00:34:53;25.40;56.10
33827;DHT22;20128;45.582;5.298;2022-08-23T00:37:20;25.30;56.20
33827;DHT22;20128;45.582;5.298;2022-08-23T00:39:46;25.30;56.20
33827;DHT22;20128;45.582;5.298;2022-08-23T00:42:36;25.20;56.20
33827;DHT22;20128;45.582;5.298;2022-08-23T00:48:26;25.20;56.20
33827;DHT22;20128;45.582;5.298;2022-08-23T00:53:31;25.20;56.60
33827;DHT22;20128;45.582;5.298;2022-08-23T00:56:00;25.10;56.70
33827;DHT22;20128;45.582;5.298;2022-08-23T00:58:29;25.10;56.60
33827;DHT22;20128;45.582;5.298;2022-08-23T01:00:56;25.10;57.00
33827;DHT22;20128;45.582;5.298;2022-08-23T01:03:25;25.10;57.10
33827;DHT22;20128;45.582;5.298;2022-08-23T01:06:07;25.00;57.10
33827;DHT22;20128;45.582;5.298;2022-08-23T01:08:34;25.00;57.40
33827;DHT22;20128;45.582;5.298;2022-08-23T01:11:15;24.90;57.30
33827;DHT22;20128;45.582;5.298;2022-08-23T01:13:52;24.90;57.60
33827;DHT22;20128;45.582;5.298;2022-08-23T01:16:46;24.90;57.70
33827;DHT22;20128;45.582;5.298;2022-08-23T01:19:17;24.80;58.00
33827;DHT22;20128;45.582;5.298;2022-08-23T01:22:11;24.80;58.30
33827;DHT22;20128;45.582;5.298;2022-08-23T01:24:38;24.70;58.30
33827;DHT22;20128;45.582;5.298;2022-08-23T01:27:05;24.70;58.50
33827;DHT22;20128;45.582;5.298;2022-08-23T01:29:31;24.60;58.50
33827;DHT22;20128;45.582;5.298;2022-08-23T01:31:57;24.60;58.80
33827;DHT22;20128;45.582;5.298;2022-08-23T01:34:25;24.50;58.80
33827;DHT22;20128;45.582;5.298;2022-08-23T01:36:51;24.60;58.80
33827;DHT22;20128;45.582;5.298;2022-08-23T01:39:17;24.60;58.70
33827;DHT22;20128;45.582;5.298;2022-08-23T01:41:43;24.60;58.70
33827;DHT22;20128;45.582;5.298;2022-08-23T01:44:09;24.50;59.00
33827;DHT22;20128;45.582;5.298;2022-08-23T01:46:35;24.50;58.80
33827;DHT22;20128;45.582;5.298;2022-08-23T01:49:03;24.50;58.90
33827;DHT22;20128;45.582;5.298;2022-08-23T01:51:28;24.50;58.80
33827;DHT22;20128;45.582;5.298;2022-08-23T01:53:54;24.60;58.70
33827;DHT22;20128;45.582;5.298;2022-08-23T01:56:20;24.60;58.60
33827;DHT22;20128;45.582;5.298;2022-08-23T01:58:47;24.70;58.70
33827;DHT22;20128;45.582;5.298;2022-08-23T02:01:14;24.70;58.70
33827;DHT22;20128;45.582;5.298;2022-08-23T02:03:40;24.70;58.50
33827;DHT22;20128;45.582;5.298;2022-08-23T02:06:05;24.70;58.70
33827;DHT22;20128;45.582;5.298;2022-08-23T02:08:31;24.70;58.80
33827;DHT22;20128;45.582;5.298;2022-08-23T02:11:18;24.60;58.80
33827;DHT22;20128;45.582;5.298;2022-08-23T02:13:46;24.60;58.70
33827;DHT22;20128;45.582;5.298;2022-08-23T02:16:23;24.60;58.70
33827;DHT22;20128;45.582;5.298;2022-08-23T02:18:50;24.60;58.70
33827;DHT22;20128;45.582;5.298;2022-08-23T02:21:16;24.60;58.60
33827;DHT22;20128;45.582;5.298;2022-08-23T02:23:42;24.60;58.60
33827;DHT22;20128;45.582;5.298;2022-08-23T02:26:08;24.60;58.60
33827;DHT22;20128;45.582;5.298;2022-08-23T02:28:34;24.60;58.60
33827;DHT22;20128;45.582;5.298;2022-08-23T02:30:59;24.70;58.60
33827;DHT22;20128;45.582;5.298;2022-08-23T02:33:25;24.60;58.50
33827;DHT22;20128;45.582;5.298;2022-08-23T02:35:50;24.60;58.70
33827;DHT22;20128;45.582;5.298;2022-08-23T02:38:16;24.50;58.70
33827;DHT22;20128;45.582;5.298;2022-08-23T02:40:43;24.50;58.70
33827;DHT22;20128;45.582;5.298;2022-08-23T02:43:09;24.50;59.50
33827;DHT22;20128;45.582;5.298;2022-08-23T02:45:35;24.50;59.20
33827;DHT22;20128;45.582;5.298;2022-08-23T02:48:01;24.40;59.10
33827;DHT22;20128;45.582;5.298;2022-08-23T02:50:27;24.30;59.20
33827;DHT22;20128;45.582;5.298;2022-08-23T02:52:54;24.30;59.40
33827;DHT22;20128;45.582;5.298;2022-08-23T02:55:20;24.30;59.50
33827;DHT22;20128;45.582;5.298;2022-08-23T02:57:46;24.20;59.50
33827;DHT22;20128;45.582;5.298;2022-08-23T03:00:13;24.20;60.30
33827;DHT22;20128;45.582;5.298;2022-08-23T03:02:39;24.10;59.70
33827;DHT22;20128;45.582;5.298;2022-08-23T03:05:06;24.20;59.80
33827;DHT22;20128;45.582;5.298;2022-08-23T03:07:34;24.10;59.70
33827;DHT22;20128;45.582;5.298;2022-08-23T03:10:01;24.10;59.80
33827;DHT22;20128;45.582;5.298;2022-08-23T03:12:26;24.10;59.80
33827;DHT22;20128;45.582;5.298;2022-08-23T03:14:52;24.10;59.80
33827;DHT22;20128;45.582;5.298;2022-08-23T03:17:19;24.10;59.80
33827;DHT22;20128;45.582;5.298;2022-08-23T03:19:44;24.20;59.70
33827;DHT22;20128;45.582;5.298;2022-08-23T03:22:10;24.20;59.60
33827;DHT22;20128;45.582;5.298;2022-08-23T03:24:36;24.10;59.80
33827;DHT22;20128;45.582;5.298;2022-08-23T03:27:03;24.20;59.90
33827;DHT22;20128;45.582;5.298;2022-08-23T03:29:29;24.10;59.80
33827;DHT22;20128;45.582;5.298;2022-08-23T03:31:56;24.10;59.90
33827;DHT22;20128;45.582;5.298;2022-08-23T03:34:22;24.10;60.00
33827;DHT22;20128;45.582;5.298;2022-08-23T03:36:47;24.10;60.00
33827;DHT22;20128;45.582;5.298;2022-08-23T03:39:13;24.10;60.00
33827;DHT22;20128;45.582;5.298;2022-08-23T03:41:39;24.10;60.00
33827;DHT22;20128;45.582;5.298;2022-08-23T03:44:04;24.10;59.90
33827;DHT22;20128;45.582;5.298;2022-08-23T03:46:30;24.10;59.90
33827;DHT22;20128;45.582;5.298;2022-08-23T03:48:58;24.10;59.80
33827;DHT22;20128;45.582;5.298;2022-08-23T03:51:26;24.10;59.90
33827;DHT22;20128;45.582;5.298;2022-08-23T03:53:52;24.10;59.80
33827;DHT22;20128;45.582;5.298;2022-08-23T03:56:30;24.10;59.80
33827;DHT22;20128;45.582;5.298;2022-08-23T03:58:58;24.10;59.80
33827;DHT22;20128;45.582;5.298;2022-08-23T04:01:24;24.10;59.80
33827;DHT22;20128;45.582;5.298;2022-08-23T04:03:50;24.10;59.80
33827;DHT22;20128;45.582;5.298;2022-08-23T04:06:16;24.10;59.70
33827;DHT22;20128;45.582;5.298;2022-08-23T04:08:43;24.10;59.70
33827;DHT22;20128;45.582;5.298;2022-08-23T04:11:10;24.10;59.70
33827;DHT22;20128;45.582;5.298;2022-08-23T04:13:37;24.00;59.70
33827;DHT22;20128;45.582;5.298;2022-08-23T04:16:04;24.10;59.70
33827;DHT22;20128;45.582;5.298;2022-08-23T04:18:31;24.00;59.70
33827;DHT22;20128;45.582;5.298;2022-08-23T04:20:59;24.00;59.60
33827;DHT22;20128;45.582;5.298;2022-08-23T04:23:26;24.00;59.70
33827;DHT22;20128;45.582;5.298;2022-08-23T04:25:53;24.00;59.70
33827;DHT22;20128;45.582;5.298;2022-08-23T04:28:19;24.00;59.70
33827;DHT22;20128;45.582;5.298;2022-08-23T04:30:45;24.10;59.70
33827;DHT22;20128;45.582;5.298;2022-08-23T04:33:11;24.00;59.80
33827;DHT22;20128;45.582;5.298;2022-08-23T04:35:37;24.00;59.90
33827;DHT22;20128;45.582;5.298;2022-08-23T04:38:03;23.90;59.90
33827;DHT22;20128;45.582;5.298;2022-08-23T04:40:28;23.90;60.00
33827;DHT22;20128;45.582;5.298;2022-08-23T04:43:13;23.80;60.00
33827;DHT22;20128;45.582;5.298;2022-08-23T04:45:39;23.80;60.10
33827;DHT22;20128;45.582;5.298;2022-08-23T04:48:05;23.80;60.10
33827;DHT22;20128;45.582;5.298;2022-08-23T04:50:31;23.80;60.10
33827;DHT22;20128;45.582;5.298;2022-08-23T04:52:57;23.80;60.10
33827;DHT22;20128;45.582;5.298;2022-08-23T04:55:23;23.80;60.10
33827;DHT22;20128;45.582;5.298;2022-08-23T04:57:49;23.80;60.10
33827;DHT22;20128;45.582;5.298;2022-08-23T05:00:15;23.80;60.10
33827;DHT22;20128;45.582;5.298;2022-08-23T05:02:42;23.80;60.80
33827;DHT22;20128;45.582;5.298;2022-08-23T05:05:09;23.80;60.30
33827;DHT22;20128;45.582;5.298;2022-08-23T05:07:36;23.80;60.40
33827;DHT22;20128;45.582;5.298;2022-08-23T05:10:04;23.70;60.40
33827;DHT22;20128;45.582;5.298;2022-08-23T05:12:30;23.70;60.40
33827;DHT22;20128;45.582;5.298;2022-08-23T05:14:55;23.70;60.60
33827;DHT22;20128;45.582;5.298;2022-08-23T05:17:21;23.70;60.60
33827;DHT22;20128;45.582;5.298;2022-08-23T05:19:47;23.70;60.70
33827;DHT22;20128;45.582;5.298;2022-08-23T05:22:12;23.60;60.70
33827;DHT22;20128;45.582;5.298;2022-08-23T05:24:38;23.60;60.70
33827;DHT22;20128;45.582;5.298;2022-08-23T05:27:04;23.60;60.80
33827;DHT22;20128;45.582;5.298;2022-08-23T05:29:30;23.60;60.80
33827;DHT22;20128;45.582;5.298;2022-08-23T05:31:55;23.60;60.90
33827;DHT22;20128;45.582;5.298;2022-08-23T05:34:21;23.60;60.90
33827;DHT22;20128;45.582;5.298;2022-08-23T05:36:47;23.60;60.90
33827;DHT22;20128;45.582;5.298;2022-08-23T05:39:14;23.60;61.00
33827;DHT22;20128;45.582;5.298;2022-08-23T05:41:41;23.60;61.10
33827;DHT22;20128;45.582;5.298;2022-08-23T05:44:07;23.50;61.00
33827;DHT22;20128;45.582;5.298;2022-08-23T05:46:32;23.60;61.10
33827;DHT22;20128;45.582;5.298;2022-08-23T05:48:58;23.60;61.10
33827;DHT22;20128;45.582;5.298;2022-08-23T05:51:30;23.60;61.20
33827;DHT22;20128;45.582;5.298;2022-08-23T05:53:58;23.60;61.20
33827;DHT22;20128;45.582;5.298;2022-08-23T05:56:30;23.50;61.30
33827;DHT22;20128;45.582;5.298;2022-08-23T05:58:59;23.50;61.60
33827;DHT22;20128;45.582;5.298;2022-08-23T06:01:27;23.40;61.90
33827;DHT22;20128;45.582;5.298;2022-08-23T06:03:53;23.40;62.40
33827;DHT22;20128;45.582;5.298;2022-08-23T06:06:19;23.30;62.60
33827;DHT22;20128;45.582;5.298;2022-08-23T06:08:46;23.30;62.80
33827;DHT22;20128;45.582;5.298;2022-08-23T06:11:18;23.30;63.10
33827;DHT22;20128;45.582;5.298;2022-08-23T06:13:46;23.20;63.20
33827;DHT22;20128;45.582;5.298;2022-08-23T06:16:14;23.20;63.60
33827;DHT22;20128;45.582;5.298;2022-08-23T06:18:41;23.20;63.70
33827;DHT22;20128;45.582;5.298;2022-08-23T06:21:08;23.10;63.70
33827;DHT22;20128;45.582;5.298;2022-08-23T06:23:35;23.10;64.10
33827;DHT22;20128;45.582;5.298;2022-08-23T06:26:18;23.00;64.20
33827;DHT22;20128;45.582;5.298;2022-08-23T06:28:45;23.00;64.20
33827;DHT22;20128;45.582;5.298;2022-08-23T06:31:11;23.00;64.30
33827;DHT22;20128;45.582;5.298;2022-08-23T06:33:40;23.00;64.40
33827;DHT22;20128;45.582;5.298;2022-08-23T06:36:09;23.10;64.40
33827;DHT22;20128;45.582;5.298;2022-08-23T06:38:36;23.10;64.40
33827;DHT22;20128;45.582;5.298;2022-08-23T06:41:04;23.00;64.80
33827;DHT22;20128;45.582;5.298;2022-08-23T06:43:31;23.00;64.60
33827;DHT22;20128;45.582;5.298;2022-08-23T06:46:13;22.90;64.80
33827;DHT22;20128;45.582;5.298;2022-08-23T06:48:41;22.90;64.80
33827;DHT22;20128;45.582;5.298;2022-08-23T06:53:46;22.90;64.80
33827;DHT22;20128;45.582;5.298;2022-08-23T06:56:12;23.00;64.70
33827;DHT22;20128;45.582;5.298;2022-08-23T06:58:37;23.10;64.40
33827;DHT22;20128;45.582;5.298;2022-08-23T07:01:22;23.10;64.10
33827;DHT22;20128;45.582;5.298;2022-08-23T07:03:56;23.10;63.80
33827;DHT22;20128;45.582;5.298;2022-08-23T07:06:26;23.00;63.80
33827;DHT22;20128;45.582;5.298;2022-08-23T07:08:52;23.00;64.00
33827;DHT22;20128;45.582;5.298;2022-08-23T07:11:19;23.00;64.00
33827;DHT22;20128;45.582;5.298;2022-08-23T07:13:45;23.00;64.00
33827;DHT22;20128;45.582;5.298;2022-08-23T07:16:12;23.00;64.00
33827;DHT22;20128;45.582;5.298;2022-08-23T07:18:38;23.10;64.00
33827;DHT22;20128;45.582;5.298;2022-08-23T07:21:04;23.20;63.80
33827;DHT22;20128;45.582;5.298;2022-08-23T07:23:32;23.20;63.70
33827;DHT22;20128;45.582;5.298;2022-08-23T07:26:05;23.30;63.40
33827;DHT22;20128;45.582;5.298;2022-08-23T07:28:31;23.20;63.40
33827;DHT22;20128;45.582;5.298;2022-08-23T07:31:33;23.30;63.60
33827;DHT22;20128;45.582;5.298;2022-08-23T07:34:02;23.30;63.30
33827;DHT22;20128;45.582;5.298;2022-08-23T07:36:30;23.40;63.20
33827;DHT22;20128;45.582;5.298;2022-08-23T07:38:57;23.40;62.70
33827;DHT22;20128;45.582;5.298;2022-08-23T07:41:25;23.40;62.70
33827;DHT22;20128;45.582;5.298;2022-08-23T07:43:59;23.50;62.50
33827;DHT22;20128;45.582;5.298;2022-08-23T07:46:30;23.50;62.30
33827;DHT22;20128;45.582;5.298;2022-08-23T07:48:57;23.60;62.20
33827;DHT22;20128;45.582;5.298;2022-08-23T07:51:23;23.70;61.90
33827;DHT22;20128;45.582;5.298;2022-08-23T07:53:49;23.80;61.50
33827;DHT22;20128;45.582;5.298;2022-08-23T07:56:17;23.80;61.00
33827;DHT22;20128;45.582;5.298;2022-08-23T07:58:43;23.80;60.80
33827;DHT22;20128;45.582;5.298;2022-08-23T08:01:17;23.90;60.70
33827;DHT22;20128;45.582;5.298;2022-08-23T08:03:45;24.00;60.40
33827;DHT22;20128;45.582;5.298;2022-08-23T08:06:17;24.10;60.10
33827;DHT22;20128;45.582;5.298;2022-08-23T08:08:44;24.10;59.70
33827;DHT22;20128;45.582;5.298;2022-08-23T08:11:12;24.20;59.30
33827;DHT22;20128;45.582;5.298;2022-08-23T08:13:40;24.30;59.20
33827;DHT22;20128;45.582;5.298;2022-08-23T08:16:07;24.30;58.50
33827;DHT22;20128;45.582;5.298;2022-08-23T08:18:37;24.40;58.50
33827;DHT22;20128;45.582;5.298;2022-08-23T08:21:03;24.50;58.60
33827;DHT22;20128;45.582;5.298;2022-08-23T08:23:29;24.50;58.20
33827;DHT22;20128;45.582;5.298;2022-08-23T08:26:06;24.70;57.80
33827;DHT22;20128;45.582;5.298;2022-08-23T08:28:34;24.80;56.90
33827;DHT22;20128;45.582;5.298;2022-08-23T08:31:00;24.90;56.30
33827;DHT22;20128;45.582;5.298;2022-08-23T08:33:27;24.90;56.10
33827;DHT22;20128;45.582;5.298;2022-08-23T08:35:53;25.10;56.10
33827;DHT22;20128;45.582;5.298;2022-08-23T08:38:19;25.10;55.10
33827;DHT22;20128;45.582;5.298;2022-08-23T08:40:54;25.30;54.30
33827;DHT22;20128;45.582;5.298;2022-08-23T08:46:52;25.30;53.90
33827;DHT22;20128;45.582;5.298;2022-08-23T08:52:23;25.50;53.70
33827;DHT22;20128;45.582;5.298;2022-08-23T08:54:55;25.60;53.40
33827;DHT22;20128;45.582;5.298;2022-08-23T08:57:23;25.60;53.00
33827;DHT22;20128;45.582;5.298;2022-08-23T09:00:00;25.70;52.70
33827;DHT22;20128;45.582;5.298;2022-08-23T09:02:33;25.80;52.60
33827;DHT22;20128;45.582;5.298;2022-08-23T09:05:06;26.00;52.40
33827;DHT22;20128;45.582;5.298;2022-08-23T09:10:25;26.10;52.10
33827;DHT22;20128;45.582;5.298;2022-08-23T09:18:40;26.50;52.00
33827;DHT22;20128;45.582;5.298;2022-08-23T09:21:07;26.70;50.90
33827;DHT22;20128;45.582;5.298;2022-08-23T09:23:44;26.80;50.80
33827;DHT22;20128;45.582;5.298;2022-08-23T09:26:29;26.90;50.90
33827;DHT22;20128;45.582;5.298;2022-08-23T09:29:00;27.00;50.40
33827;DHT22;20128;45.582;5.298;2022-08-23T09:31:42;27.00;49.70
33827;DHT22;20128;45.582;5.298;2022-08-23T09:34:15;27.10;49.90
33827;DHT22;20128;45.582;5.298;2022-08-23T09:36:41;27.20;49.60
33827;DHT22;20128;45.582;5.298;2022-08-23T09:39:25;27.30;49.60
33827;DHT22;20128;45.582;5.298;2022-08-23T09:41:53;27.40;49.10
33827;DHT22;20128;45.582;5.298;2022-08-23T09:44:37;27.50;49.80
33827;DHT22;20128;45.582;5.298;2022-08-23T09:47:10;27.60;49.20
33827;DHT22;20128;45.582;5.298;2022-08-23T09:49:36;27.80;48.90
33827;DHT22;20128;45.582;5.298;2022-08-23T09:52:26;27.90;48.40
33827;DHT22;20128;45.582;5.298;2022-08-23T09:54:59;28.00;48.20
33827;DHT22;20128;45.582;5.298;2022-08-23T09:57:29;28.10;47.50
33827;DHT22;20128;45.582;5.298;2022-08-23T10:00:00;28.20;47.50
33827;DHT22;20128;45.582;5.298;2022-08-23T10:02:32;28.20;47.30
33827;DHT22;20128;45.582;5.298;2022-08-23T10:05:16;28.30;47.00
33827;DHT22;20128;45.582;5.298;2022-08-23T10:07:52;28.40;46.60
33827;DHT22;20128;45.582;5.298;2022-08-23T10:10:35;28.50;46.60
33827;DHT22;20128;45.582;5.298;2022-08-23T10:13:04;28.60;46.20
33827;DHT22;20128;45.582;5.298;2022-08-23T10:21:09;29.00;46.20
33827;DHT22;20128;45.582;5.298;2022-08-23T10:26:35;29.10;45.30
33827;DHT22;20128;45.582;5.298;2022-08-23T10:32:00;29.10;45.00
33827;DHT22;20128;45.582;5.298;2022-08-23T10:37:15;29.20;44.70
33827;DHT22;20128;45.582;5.298;2022-08-23T10:40:17;29.40;45.10
33827;DHT22;20128;45.582;5.298;2022-08-23T10:45:34;29.70;43.70
33827;DHT22;20128;45.582;5.298;2022-08-23T10:48:16;29.80;44.00
33827;DHT22;20128;45.582;5.298;2022-08-23T10:50:54;30.00;43.50
33827;DHT22;20128;45.582;5.298;2022-08-23T10:53:23;30.10;43.40
33827;DHT22;20128;45.582;5.298;2022-08-23T10:55:57;30.20;43.30
33827;DHT22;20128;45.582;5.298;2022-08-23T10:58:49;30.40;42.80
33827;DHT22;20128;45.582;5.298;2022-08-23T11:01:33;30.50;42.30
33827;DHT22;20128;45.582;5.298;2022-08-23T11:04:07;30.60;42.50
33827;DHT22;20128;45.582;5.298;2022-08-23T11:06:43;30.60;42.00
33827;DHT22;20128;45.582;5.298;2022-08-23T11:14:35;30.90;42.00
33827;DHT22;20128;45.582;5.298;2022-08-23T11:17:06;31.00;41.70
33827;DHT22;20128;45.582;5.298;2022-08-23T11:19:53;31.10;41.50
33827;DHT22;20128;45.582;5.298;2022-08-23T11:22:21;31.20;41.30
33827;DHT22;20128;45.582;5.298;2022-08-23T11:25:05;31.20;41.40
33827;DHT22;20128;45.582;5.298;2022-08-23T11:27:51;31.40;41.50
33827;DHT22;20128;45.582;5.298;2022-08-23T11:30:42;31.40;41.30
33827;DHT22;20128;45.582;5.298;2022-08-23T11:33:43;31.40;40.50
33827;DHT22;20128;45.582;5.298;2022-08-23T11:36:18;31.50;40.90
33827;DHT22;20128;45.582;5.298;2022-08-23T11:41:35;31.70;40.10
33827;DHT22;20128;45.582;5.298;2022-08-23T11:44:26;31.80;40.30
33827;DHT22;20128;45.582;5.298;2022-08-23T11:47:00;31.80;39.90
33827;DHT22;20128;45.582;5.298;2022-08-23T12:03:06;31.50;40.00
33827;DHT22;20128;45.582;5.298;2022-08-23T12:18:50;31.40;40.20
33827;DHT22;20128;45.582;5.298;2022-08-23T12:21:30;31.40;40.40
33827;DHT22;20128;45.582;5.298;2022-08-23T12:24:05;31.40;40.40
33827;DHT22;20128;45.582;5.298;2022-08-23T12:31:56;31.30;40.60
33827;DHT22;20128;45.582;5.298;2022-08-23T12:37:17;31.30;39.90
33827;DHT22;20128;45.582;5.298;2022-08-23T12:39:51;31.30;40.10
33827;DHT22;20128;45.582;5.298;2022-08-23T12:42:25;31.40;39.60
33827;DHT22;20128;45.582;5.298;2022-08-23T12:45:19;31.40;39.90
33827;DHT22;20128;45.582;5.298;2022-08-23T12:48:00;31.40;40.30
33827;DHT22;20128;45.582;5.298;2022-08-23T12:50:34;31.40;40.10
33827;DHT22;20128;45.582;5.298;2022-08-23T12:53:13;31.50;39.40
33827;DHT22;20128;45.582;5.298;2022-08-23T12:55:45;31.50;39.70
33827;DHT22;20128;45.582;5.298;2022-08-23T12:58:14;31.50;39.40
33827;DHT22;20128;45.582;5.298;2022-08-23T13:00:42;31.50;39.50
33827;DHT22;20128;45.582;5.298;2022-08-23T13:03:22;31.70;39.30
33827;DHT22;20128;45.582;5.298;2022-08-23T13:05:57;31.70;39.20
33827;DHT22;20128;45.582;5.298;2022-08-23T13:08:42;31.80;38.40
33827;DHT22;20128;45.582;5.298;2022-08-23T13:11:11;31.90;38.50
33827;DHT22;20128;45.582;5.298;2022-08-23T13:13:39;31.90;38.60
33827;DHT22;20128;45.582;5.298;2022-08-23T13:16:27;32.00;38.40
33827;DHT22;20128;45.582;5.298;2022-08-23T13:19:06;32.10;38.30
33827;DHT22;20128;45.582;5.298;2022-08-23T13:21:34;32.10;37.90
33827;DHT22;20128;45.582;5.298;2022-08-23T13:24:25;32.30;38.30
33827;DHT22;20128;45.582;5.298;2022-08-23T13:26:46;32.40;37.90
33827;DHT22;20128;45.582;5.298;2022-08-23T13:32:01;32.70;38.00
33827;DHT22;20128;45.582;5.298;2022-08-23T13:34:43;32.80;37.90
33827;DHT22;20128;45.582;5.298;2022-08-23T13:37:20;32.90;38.00
33827;DHT22;20128;45.582;5.298;2022-08-23T13:39:56;33.00;37.70
33827;DHT22;20128;45.582;5.298;2022-08-23T13:42:43;33.10;37.20
33827;DHT22;20128;45.582;5.298;2022-08-23T13:45:15;33.10;37.10
33827;DHT22;20128;45.582;5.298;2022-08-23T13:47:47;33.10;37.10
33827;DHT22;20128;45.582;5.298;2022-08-23T13:50:23;33.20;37.10
33827;DHT22;20128;45.582;5.298;2022-08-23T13:52:51;33.40;37.20
33827;DHT22;20128;45.582;5.298;2022-08-23T13:55:17;33.60;37.00
33827;DHT22;20128;45.582;5.298;2022-08-23T13:57:43;33.60;36.50
33827;DHT22;20128;45.582;5.298;2022-08-23T14:00:09;33.70;36.50
33827;DHT22;20128;45.582;5.298;2022-08-23T14:02:36;33.80;36.20
33827;DHT22;20128;45.582;5.298;2022-08-23T14:05:07;33.90;36.40
33827;DHT22;20128;45.582;5.298;2022-08-23T14:07:34;33.90;36.30
33827;DHT22;20128;45.582;5.298;2022-08-23T14:10:00;34.10;36.60
33827;DHT22;20128;45.582;5.298;2022-08-23T14:12:31;34.10;35.90
33827;DHT22;20128;45.582;5.298;2022-08-23T14:14:58;34.20;36.10
33827;DHT22;20128;45.582;5.298;2022-08-23T14:17:25;34.20;36.20
33827;DHT22;20128;45.582;5.298;2022-08-23T14:19:51;34.30;36.00
33827;DHT22;20128;45.582;5.298;2022-08-23T14:22:17;34.40;36.00
33827;DHT22;20128;45.582;5.298;2022-08-23T14:24:43;34.40;35.50
33827;DHT22;20128;45.582;5.298;2022-08-23T14:27:10;34.50;35.50
33827;DHT22;20128;45.582;5.298;2022-08-23T14:29:36;34.40;35.20
33827;DHT22;20128;45.582;5.298;2022-08-23T14:32:02;34.40;35.60
33827;DHT22;20128;45.582;5.298;2022-08-23T14:34:29;34.40;35.50
33827;DHT22;20128;45.582;5.298;2022-08-23T14:36:55;34.40;35.60
33827;DHT22;20128;45.582;5.298;2022-08-23T14:39:21;34.50;35.30
33827;DHT22;20128;45.582;5.298;2022-08-23T14:41:48;34.50;35.30
33827;DHT22;20128;45.582;5.298;2022-08-23T14:44:14;34.40;35.30
33827;DHT22;20128;45.582;5.298;2022-08-23T14:46:42;34.30;35.50
33827;DHT22;20128;45.582;5.298;2022-08-23T14:49:08;34.30;35.70
33827;DHT22;20128;45.582;5.298;2022-08-23T14:51:37;34.30;35.70
33827;DHT22;20128;45.582;5.298;2022-08-23T14:54:05;34.40;35.60
33827;DHT22;20128;45.582;5.298;2022-08-23T14:56:32;34.40;35.60
33827;DHT22;20128;45.582;5.298;2022-08-23T14:58:58;34.40;35.70
33827;DHT22;20128;45.582;5.298;2022-08-23T15:01:24;34.50;35.90
33827;DHT22;20128;45.582;5.298;2022-08-23T15:03:50;34.50;35.20
33827;DHT22;20128;45.582;5.298;2022-08-23T15:06:17;34.50;35.40
33827;DHT22;20128;45.582;5.298;2022-08-23T15:08:43;34.50;35.60
33827;DHT22;20128;45.582;5.298;2022-08-23T15:11:10;34.40;35.00
33827;DHT22;20128;45.582;5.298;2022-08-23T15:13:36;34.50;35.30
33827;DHT22;20128;45.582;5.298;2022-08-23T15:16:04;34.50;35.40
33827;DHT22;20128;45.582;5.298;2022-08-23T15:18:31;34.50;35.30
33827;DHT22;20128;45.582;5.298;2022-08-23T15:20:57;34.50;35.20
33827;DHT22;20128;45.582;5.298;2022-08-23T15:23:23;34.50;35.30
33827;DHT22;20128;45.582;5.298;2022-08-23T15:25:49;34.60;35.20
33827;DHT22;20128;45.582;5.298;2022-08-23T15:28:17;34.50;35.10
33827;DHT22;20128;45.582;5.298;2022-08-23T15:30:43;34.50;35.30
33827;DHT22;20128;45.582;5.298;2022-08-23T15:33:09;34.60;35.40
33827;DHT22;20128;45.582;5.298;2022-08-23T15:35:45;34.70;35.50
33827;DHT22;20128;45.582;5.298;2022-08-23T15:38:13;34.70;35.00
33827;DHT22;20128;45.582;5.298;2022-08-23T15:40:39;34.80;35.70
33827;DHT22;20128;45.582;5.298;2022-08-23T15:43:05;34.80;35.10
33827;DHT22;20128;45.582;5.298;2022-08-23T15:45:31;34.80;35.20
33827;DHT22;20128;45.582;5.298;2022-08-23T15:47:58;34.80;35.20
33827;DHT22;20128;45.582;5.298;2022-08-23T15:50:28;34.80;35.20
33827;DHT22;20128;45.582;5.298;2022-08-23T15:52:57;34.80;35.40
33827;DHT22;20128;45.582;5.298;2022-08-23T15:55:29;34.80;35.10
33827;DHT22;20128;45.582;5.298;2022-08-23T15:57:55;34.80;35.10
33827;DHT22;20128;45.582;5.298;2022-08-23T16:00:23;34.70;35.10
33827;DHT22;20128;45.582;5.298;2022-08-23T16:02:50;34.70;35.20
33827;DHT22;20128;45.582;5.298;2022-08-23T16:05:17;34.60;35.20
33827;DHT22;20128;45.582;5.298;2022-08-23T16:07:43;34.60;35.50
33827;DHT22;20128;45.582;5.298;2022-08-23T16:10:12;34.60;35.40
33827;DHT22;20128;45.582;5.298;2022-08-23T16:12:39;34.60;35.40
33827;DHT22;20128;45.582;5.298;2022-08-23T16:15:06;34.60;35.30
33827;DHT22;20128;45.582;5.298;2022-08-23T16:17:34;34.50;35.30
33827;DHT22;20128;45.582;5.298;2022-08-23T16:20:00;34.50;35.20
33827;DHT22;20128;45.582;5.298;2022-08-23T16:22:25;34.40;35.10
33827;DHT22;20128;45.582;5.298;2022-08-23T16:24:51;34.40;35.20
33827;DHT22;20128;45.582;5.298;2022-08-23T16:27:18;34.30;35.20
33827;DHT22;20128;45.582;5.298;2022-08-23T16:29:44;34.30;35.60
33827;DHT22;20128;45.582;5.298;2022-08-23T16:32:10;34.30;35.70
33827;DHT22;20128;45.582;5.298;2022-08-23T16:34:36;34.30;35.70
33827;DHT22;20128;45.582;5.298;2022-08-23T16:37:03;34.30;35.80
33827;DHT22;20128;45.582;5.298;2022-08-23T16:39:30;34.20;35.70
33827;DHT22;20128;45.582;5.298;2022-08-23T16:41:59;34.10;35.70
33827;DHT22;20128;45.582;5.298;2022-08-23T16:44:26;34.10;35.90
33827;DHT22;20128;45.582;5.298;2022-08-23T16:46:52;34.10;35.60
33827;DHT22;20128;45.582;5.298;2022-08-23T16:49:18;34.10;35.80
33827;DHT22;20128;45.582;5.298;2022-08-23T16:51:44;34.10;35.90
33827;DHT22;20128;45.582;5.298;2022-08-23T16:54:10;34.00;35.80
33827;DHT22;20128;45.582;5.298;2022-08-23T16:56:38;34.00;35.60
33827;DHT22;20128;45.582;5.298;2022-08-23T16:59:06;34.00;35.80
33827;DHT22;20128;45.582;5.298;2022-08-23T17:01:54;34.00;35.80
33827;DHT22;20128;45.582;5.298;2022-08-23T17:04:20;34.00;35.90
33827;DHT22;20128;45.582;5.298;2022-08-23T17:06:48;34.00;36.00
33827;DHT22;20128;45.582;5.298;2022-08-23T17:09:15;34.00;35.90
33827;DHT22;20128;45.582;5.298;2022-08-23T17:11:42;34.00;35.80